sensor_id;sensor_type;location;lat;lon;timestamp;P1;durP1;ratioP1;P2;durP2;ratioP2
64688;SDS011;62504;46.070;14.492;2024-01-30T00:01:25;45.50;;;16.87;;
64688;SDS011;62504;46.070;14.492;2024-01-30T00:03:50;45.83;;;17.93;;
64688;SDS011;62504;46.070;14.492;2024-01-30T00:06:19;40.27;;;17.70;;
64688;SDS011;62504;46.070;14.492;2024-01-30T00:08:48;45.20;;;17.20;;
64688;SDS011;62504;46.070;14.492;2024-01-30T00:11:14;40.13;;;16.43;;
64688;SDS011;62504;46.070;14.492;2024-01-30T00:13:41;42.90;;;17.33;;
64688;SDS011;62504;46.070;14.492;2024-01-30T00:16:06;40.87;;;16.93;;
64688;SDS011;62504;46.070;14.492;2024-01-30T00:18:33;39.03;;;16.17;;
64688;SDS011;62504;46.070;14.492;2024-01-30T00:20:59;38.63;;;16.70;;
64688;SDS011;62504;46.070;14.492;2024-01-30T00:23:25;39.43;;;16.07;;
64688;SDS011;62504;46.070;14.492;2024-01-30T00:25:50;40.80;;;16.37;;
64688;SDS011;62504;46.070;14.492;2024-01-30T00:28:16;41.53;;;16.73;;
64688;SDS011;62504;46.070;14.492;2024-01-30T00:30:42;41.47;;;16.70;;
64688;SDS011;62504;46.070;14.492;2024-01-30T00:33:08;44.23;;;17.27;;
64688;SDS011;62504;46.070;14.492;2024-01-30T00:35:34;44.30;;;17.70;;
64688;SDS011;62504;46.070;14.492;2024-01-30T00:38:00;42.93;;;16.83;;
64688;SDS011;62504;46.070;14.492;2024-01-30T00:40:26;41.03;;;16.83;;
64688;SDS011;62504;46.070;14.492;2024-01-30T00:42:51;44.80;;;16.73;;
64688;SDS011;62504;46.070;14.492;2024-01-30T00:45:17;41.70;;;16.33;;
64688;SDS011;62504;46.070;14.492;2024-01-30T00:47:43;38.90;;;15.93;;
64688;SDS011;62504;46.070;14.492;2024-01-30T00:50:09;43.43;;;16.63;;
64688;SDS011;62504;46.070;14.492;2024-01-30T00:52:36;38.87;;;15.90;;
64688;SDS011;62504;46.070;14.492;2024-01-30T00:55:01;42.03;;;17.00;;
64688;SDS011;62504;46.070;14.492;2024-01-30T00:57:27;39.00;;;16.07;;
64688;SDS011;62504;46.070;14.492;2024-01-30T00:59:53;39.90;;;16.63;;
64688;SDS011;62504;46.070;14.492;2024-01-30T01:02:19;40.00;;;15.93;;
64688;SDS011;62504;46.070;14.492;2024-01-30T01:04:45;43.83;;;15.63;;
64688;SDS011;62504;46.070;14.492;2024-01-30T01:07:11;44.17;;;16.17;;
64688;SDS011;62504;46.070;14.492;2024-01-30T01:09:37;40.60;;;16.23;;
64688;SDS011;62504;46.070;14.492;2024-01-30T01:12:03;40.47;;;16.23;;
64688;SDS011;62504;46.070;14.492;2024-01-30T01:14:29;42.17;;;15.90;;
64688;SDS011;62504;46.070;14.492;2024-01-30T01:16:55;40.00;;;15.77;;
64688;SDS011;62504;46.070;14.492;2024-01-30T01:19:21;37.83;;;14.83;;
64688;SDS011;62504;46.070;14.492;2024-01-30T01:21:47;40.10;;;14.87;;
64688;SDS011;62504;46.070;14.492;2024-01-30T01:24:12;36.90;;;15.27;;
64688;SDS011;62504;46.070;14.492;2024-01-30T01:26:38;43.17;;;16.40;;
64688;SDS011;62504;46.070;14.492;2024-01-30T01:29:04;36.33;;;15.53;;
64688;SDS011;62504;46.070;14.492;2024-01-30T01:31:35;38.50;;;15.93;;
64688;SDS011;62504;46.070;14.492;2024-01-30T01:34:05;35.23;;;14.87;;
64688;SDS011;62504;46.070;14.492;2024-01-30T01:36:31;40.77;;;15.63;;
64688;SDS011;62504;46.070;14.492;2024-01-30T01:38:56;37.53;;;15.47;;
64688;SDS011;62504;46.070;14.492;2024-01-30T01:41:22;40.03;;;15.63;;
64688;SDS011;62504;46.070;14.492;2024-01-30T01:43:48;35.67;;;15.47;;
64688;SDS011;62504;46.070;14.492;2024-01-30T01:46:13;40.43;;;14.87;;
64688;SDS011;62504;46.070;14.492;2024-01-30T01:48:39;45.27;;;15.87;;
64688;SDS011;62504;46.070;14.492;2024-01-30T01:51:05;37.33;;;16.17;;
64688;SDS011;62504;46.070;14.492;2024-01-30T01:53:32;37.07;;;15.07;;
64688;SDS011;62504;46.070;14.492;2024-01-30T01:55:58;36.60;;;15.53;;
64688;SDS011;62504;46.070;14.492;2024-01-30T01:58:23;40.97;;;15.23;;
64688;SDS011;62504;46.070;14.492;2024-01-30T02:00:54;38.50;;;15.80;;
64688;SDS011;62504;46.070;14.492;2024-01-30T02:03:21;41.40;;;16.03;;
64688;SDS011;62504;46.070;14.492;2024-01-30T02:05:46;41.87;;;16.40;;
64688;SDS011;62504;46.070;14.492;2024-01-30T02:08:12;35.70;;;15.47;;
64688;SDS011;62504;46.070;14.492;2024-01-30T02:10:38;40.80;;;15.97;;
64688;SDS011;62504;46.070;14.492;2024-01-30T02:13:04;38.23;;;14.83;;
64688;SDS011;62504;46.070;14.492;2024-01-30T02:15:29;34.87;;;15.00;;
64688;SDS011;62504;46.070;14.492;2024-01-30T02:17:55;34.93;;;14.97;;
64688;SDS011;62504;46.070;14.492;2024-01-30T02:20:21;34.63;;;15.07;;
64688;SDS011;62504;46.070;14.492;2024-01-30T02:22:48;34.97;;;14.50;;
64688;SDS011;62504;46.070;14.492;2024-01-30T02:25:14;36.87;;;14.97;;
64688;SDS011;62504;46.070;14.492;2024-01-30T02:27:40;34.77;;;14.43;;
64688;SDS011;62504;46.070;14.492;2024-01-30T02:30:05;31.87;;;14.80;;
64688;SDS011;62504;46.070;14.492;2024-01-30T02:32:31;36.43;;;14.60;;
64688;SDS011;62504;46.070;14.492;2024-01-30T02:34:57;34.33;;;14.67;;
64688;SDS011;62504;46.070;14.492;2024-01-30T02:37:23;34.87;;;14.57;;
64688;SDS011;62504;46.070;14.492;2024-01-30T02:39:48;35.10;;;14.57;;
64688;SDS011;62504;46.070;14.492;2024-01-30T02:42:14;33.40;;;13.83;;
64688;SDS011;62504;46.070;14.492;2024-01-30T02:44:40;36.67;;;14.40;;
64688;SDS011;62504;46.070;14.492;2024-01-30T02:47:05;38.17;;;15.07;;
64688;SDS011;62504;46.070;14.492;2024-01-30T02:49:31;30.57;;;13.53;;
64688;SDS011;62504;46.070;14.492;2024-01-30T02:51:57;31.40;;;13.97;;
64688;SDS011;62504;46.070;14.492;2024-01-30T02:54:22;35.03;;;14.23;;
64688;SDS011;62504;46.070;14.492;2024-01-30T02:56:48;29.27;;;13.53;;
64688;SDS011;62504;46.070;14.492;2024-01-30T02:59:14;33.97;;;14.33;;
64688;SDS011;62504;46.070;14.492;2024-01-30T03:01:45;30.30;;;13.33;;
64688;SDS011;62504;46.070;14.492;2024-01-30T03:04:11;36.90;;;14.53;;
64688;SDS011;62504;46.070;14.492;2024-01-30T03:06:37;36.40;;;14.37;;
64688;SDS011;62504;46.070;14.492;2024-01-30T03:09:03;35.37;;;13.63;;
64688;SDS011;62504;46.070;14.492;2024-01-30T03:11:29;33.37;;;13.73;;
64688;SDS011;62504;46.070;14.492;2024-01-30T03:13:55;34.43;;;13.93;;
64688;SDS011;62504;46.070;14.492;2024-01-30T03:16:21;29.97;;;14.47;;
64688;SDS011;62504;46.070;14.492;2024-01-30T03:18:47;34.03;;;13.90;;
64688;SDS011;62504;46.070;14.492;2024-01-30T03:21:13;35.70;;;14.53;;
64688;SDS011;62504;46.070;14.492;2024-01-30T03:23:39;34.70;;;14.40;;
64688;SDS011;62504;46.070;14.492;2024-01-30T03:26:05;29.20;;;13.80;;
64688;SDS011;62504;46.070;14.492;2024-01-30T03:28:31;35.60;;;15.03;;
64688;SDS011;62504;46.070;14.492;2024-01-30T03:30:57;40.40;;;15.17;;
64688;SDS011;62504;46.070;14.492;2024-01-30T03:33:23;40.63;;;15.57;;
64688;SDS011;62504;46.070;14.492;2024-01-30T03:35:48;40.70;;;16.30;;
64688;SDS011;62504;46.070;14.492;2024-01-30T03:38:14;40.43;;;16.30;;
64688;SDS011;62504;46.070;14.492;2024-01-30T03:40:39;37.90;;;15.90;;
64688;SDS011;62504;46.070;14.492;2024-01-30T03:43:05;39.30;;;15.43;;
64688;SDS011;62504;46.070;14.492;2024-01-30T03:45:31;38.43;;;16.07;;
64688;SDS011;62504;46.070;14.492;2024-01-30T03:47:56;40.60;;;15.97;;
64688;SDS011;62504;46.070;14.492;2024-01-30T03:50:22;39.90;;;15.43;;
64688;SDS011;62504;46.070;14.492;2024-01-30T03:52:48;40.27;;;16.23;;
64688;SDS011;62504;46.070;14.492;2024-01-30T03:55:14;40.63;;;16.20;;
64688;SDS011;62504;46.070;14.492;2024-01-30T03:57:39;35.90;;;16.03;;
64688;SDS011;62504;46.070;14.492;2024-01-30T04:00:05;37.33;;;15.37;;
64688;SDS011;62504;46.070;14.492;2024-01-30T04:02:31;37.57;;;15.10;;
64688;SDS011;62504;46.070;14.492;2024-01-30T04:04:57;37.17;;;15.63;;
64688;SDS011;62504;46.070;14.492;2024-01-30T04:07:23;36.87;;;16.23;;
64688;SDS011;62504;46.070;14.492;2024-01-30T04:09:49;39.73;;;16.13;;
64688;SDS011;62504;46.070;14.492;2024-01-30T04:12:14;42.60;;;17.23;;
64688;SDS011;62504;46.070;14.492;2024-01-30T04:14:40;45.67;;;15.83;;
64688;SDS011;62504;46.070;14.492;2024-01-30T04:17:06;40.10;;;16.20;;
64688;SDS011;62504;46.070;14.492;2024-01-30T04:19:31;46.20;;;16.00;;
64688;SDS011;62504;46.070;14.492;2024-01-30T04:21:57;35.17;;;15.57;;
64688;SDS011;62504;46.070;14.492;2024-01-30T04:24:22;37.40;;;14.97;;
64688;SDS011;62504;46.070;14.492;2024-01-30T04:26:48;37.07;;;15.17;;
64688;SDS011;62504;46.070;14.492;2024-01-30T04:29:14;32.47;;;14.07;;
64688;SDS011;62504;46.070;14.492;2024-01-30T04:31:39;33.20;;;14.87;;
64688;SDS011;62504;46.070;14.492;2024-01-30T04:34:05;33.27;;;14.07;;
64688;SDS011;62504;46.070;14.492;2024-01-30T04:36:31;38.53;;;14.10;;
64688;SDS011;62504;46.070;14.492;2024-01-30T04:38:56;32.67;;;13.57;;
64688;SDS011;62504;46.070;14.492;2024-01-30T04:41:22;38.30;;;14.60;;
64688;SDS011;62504;46.070;14.492;2024-01-30T04:43:48;37.90;;;13.70;;
64688;SDS011;62504;46.070;14.492;2024-01-30T04:46:13;29.40;;;13.37;;
64688;SDS011;62504;46.070;14.492;2024-01-30T04:48:39;32.67;;;12.87;;
64688;SDS011;62504;46.070;14.492;2024-01-30T04:51:04;30.03;;;12.07;;
64688;SDS011;62504;46.070;14.492;2024-01-30T04:53:30;26.97;;;12.00;;
64688;SDS011;62504;46.070;14.492;2024-01-30T04:55:56;26.30;;;11.87;;
64688;SDS011;62504;46.070;14.492;2024-01-30T04:58:22;28.43;;;12.23;;
64688;SDS011;62504;46.070;14.492;2024-01-30T05:00:47;29.70;;;12.33;;
64688;SDS011;62504;46.070;14.492;2024-01-30T05:03:16;29.67;;;11.63;;
64688;SDS011;62504;46.070;14.492;2024-01-30T05:05:42;28.63;;;12.27;;
64688;SDS011;62504;46.070;14.492;2024-01-30T05:08:08;33.43;;;12.83;;
64688;SDS011;62504;46.070;14.492;2024-01-30T05:10:34;26.00;;;11.93;;
64688;SDS011;62504;46.070;14.492;2024-01-30T05:13:00;24.83;;;11.63;;
64688;SDS011;62504;46.070;14.492;2024-01-30T05:15:25;30.67;;;12.77;;
64688;SDS011;62504;46.070;14.492;2024-01-30T05:17:51;31.43;;;12.67;;
64688;SDS011;62504;46.070;14.492;2024-01-30T05:20:16;25.20;;;11.60;;
64688;SDS011;62504;46.070;14.492;2024-01-30T05:22:42;28.47;;;11.53;;
64688;SDS011;62504;46.070;14.492;2024-01-30T05:25:10;28.23;;;12.00;;
64688;SDS011;62504;46.070;14.492;2024-01-30T05:27:37;25.83;;;11.23;;
64688;SDS011;62504;46.070;14.492;2024-01-30T05:30:03;24.87;;;11.27;;
64688;SDS011;62504;46.070;14.492;2024-01-30T05:32:30;27.90;;;11.70;;
64688;SDS011;62504;46.070;14.492;2024-01-30T05:34:55;32.73;;;12.73;;
64688;SDS011;62504;46.070;14.492;2024-01-30T05:37:21;28.83;;;12.17;;
64688;SDS011;62504;46.070;14.492;2024-01-30T05:39:46;25.47;;;11.40;;
64688;SDS011;62504;46.070;14.492;2024-01-30T05:42:12;27.93;;;11.20;;
64688;SDS011;62504;46.070;14.492;2024-01-30T05:44:38;28.67;;;11.97;;
64688;SDS011;62504;46.070;14.492;2024-01-30T05:47:03;35.43;;;12.47;;
64688;SDS011;62504;46.070;14.492;2024-01-30T05:49:29;37.00;;;13.50;;
64688;SDS011;62504;46.070;14.492;2024-01-30T05:51:55;34.47;;;14.37;;
64688;SDS011;62504;46.070;14.492;2024-01-30T05:54:20;32.47;;;13.77;;
64688;SDS011;62504;46.070;14.492;2024-01-30T05:56:46;38.13;;;15.40;;
64688;SDS011;62504;46.070;14.492;2024-01-30T05:59:12;53.17;;;18.70;;
64688;SDS011;62504;46.070;14.492;2024-01-30T06:01:37;54.73;;;18.93;;
64688;SDS011;62504;46.070;14.492;2024-01-30T06:04:03;62.83;;;21.60;;
64688;SDS011;62504;46.070;14.492;2024-01-30T06:06:29;47.07;;;17.73;;
64688;SDS011;62504;46.070;14.492;2024-01-30T06:08:54;37.07;;;15.33;;
64688;SDS011;62504;46.070;14.492;2024-01-30T06:11:21;36.97;;;14.27;;
64688;SDS011;62504;46.070;14.492;2024-01-30T06:13:46;38.63;;;14.83;;
64688;SDS011;62504;46.070;14.492;2024-01-30T06:16:12;37.17;;;15.30;;
64688;SDS011;62504;46.070;14.492;2024-01-30T06:18:38;39.07;;;16.43;;
64688;SDS011;62504;46.070;14.492;2024-01-30T06:24:25;45.53;;;15.93;;
64688;SDS011;62504;46.070;14.492;2024-01-30T06:26:52;35.13;;;14.50;;
64688;SDS011;62504;46.070;14.492;2024-01-30T06:29:18;37.67;;;13.77;;
64688;SDS011;62504;46.070;14.492;2024-01-30T06:31:44;37.20;;;12.93;;
64688;SDS011;62504;46.070;14.492;2024-01-30T06:34:10;33.40;;;12.87;;
64688;SDS011;62504;46.070;14.492;2024-01-30T06:36:37;27.13;;;11.90;;
64688;SDS011;62504;46.070;14.492;2024-01-30T06:39:03;33.10;;;12.57;;
64688;SDS011;62504;46.070;14.492;2024-01-30T06:41:28;27.03;;;11.83;;
64688;SDS011;62504;46.070;14.492;2024-01-30T06:43:54;29.17;;;12.70;;
64688;SDS011;62504;46.070;14.492;2024-01-30T06:46:21;30.93;;;11.97;;
64688;SDS011;62504;46.070;14.492;2024-01-30T06:48:46;27.00;;;11.77;;
64688;SDS011;62504;46.070;14.492;2024-01-30T06:51:12;34.17;;;12.67;;
64688;SDS011;62504;46.070;14.492;2024-01-30T06:53:38;33.07;;;12.03;;
64688;SDS011;62504;46.070;14.492;2024-01-30T06:56:04;29.23;;;12.37;;
64688;SDS011;62504;46.070;14.492;2024-01-30T06:58:30;31.40;;;13.30;;
64688;SDS011;62504;46.070;14.492;2024-01-30T07:00:56;29.57;;;13.33;;
64688;SDS011;62504;46.070;14.492;2024-01-30T07:03:21;32.47;;;13.33;;
64688;SDS011;62504;46.070;14.492;2024-01-30T07:05:47;35.60;;;13.93;;
64688;SDS011;62504;46.070;14.492;2024-01-30T07:08:13;34.53;;;14.53;;
64688;SDS011;62504;46.070;14.492;2024-01-30T07:10:42;40.23;;;14.27;;
64688;SDS011;62504;46.070;14.492;2024-01-30T07:13:11;33.43;;;14.27;;
64688;SDS011;62504;46.070;14.492;2024-01-30T07:15:37;35.63;;;15.03;;
64688;SDS011;62504;46.070;14.492;2024-01-30T07:18:03;38.10;;;14.60;;
64688;SDS011;62504;46.070;14.492;2024-01-30T07:20:30;34.40;;;13.97;;
64688;SDS011;62504;46.070;14.492;2024-01-30T07:22:57;34.40;;;13.70;;
64688;SDS011;62504;46.070;14.492;2024-01-30T07:25:23;32.83;;;13.87;;
64688;SDS011;62504;46.070;14.492;2024-01-30T07:27:55;33.87;;;14.90;;
64688;SDS011;62504;46.070;14.492;2024-01-30T07:30:21;31.57;;;15.03;;
64688;SDS011;62504;46.070;14.492;2024-01-30T07:32:48;38.17;;;15.10;;
64688;SDS011;62504;46.070;14.492;2024-01-30T07:35:14;40.80;;;15.73;;
64688;SDS011;62504;46.070;14.492;2024-01-30T07:37:40;40.00;;;16.77;;
64688;SDS011;62504;46.070;14.492;2024-01-30T07:40:05;39.93;;;16.90;;
64688;SDS011;62504;46.070;14.492;2024-01-30T07:42:32;35.93;;;15.80;;
64688;SDS011;62504;46.070;14.492;2024-01-30T07:44:58;41.27;;;16.57;;
64688;SDS011;62504;46.070;14.492;2024-01-30T07:47:25;44.20;;;17.77;;
64688;SDS011;62504;46.070;14.492;2024-01-30T07:49:50;43.60;;;17.03;;
64688;SDS011;62504;46.070;14.492;2024-01-30T07:52:16;41.30;;;16.93;;
64688;SDS011;62504;46.070;14.492;2024-01-30T07:54:48;40.63;;;17.37;;
64688;SDS011;62504;46.070;14.492;2024-01-30T07:57:14;40.03;;;16.27;;
64688;SDS011;62504;46.070;14.492;2024-01-30T07:59:43;38.27;;;16.00;;
64688;SDS011;62504;46.070;14.492;2024-01-30T08:02:10;37.67;;;16.57;;
64688;SDS011;62504;46.070;14.492;2024-01-30T08:04:37;37.40;;;17.20;;
64688;SDS011;62504;46.070;14.492;2024-01-30T08:07:02;44.23;;;17.93;;
64688;SDS011;62504;46.070;14.492;2024-01-30T08:09:28;38.30;;;17.20;;
64688;SDS011;62504;46.070;14.492;2024-01-30T08:11:54;40.23;;;16.17;;
64688;SDS011;62504;46.070;14.492;2024-01-30T08:14:19;37.27;;;17.30;;
64688;SDS011;62504;46.070;14.492;2024-01-30T08:16:45;37.73;;;17.47;;
64688;SDS011;62504;46.070;14.492;2024-01-30T08:19:11;44.70;;;18.13;;
64688;SDS011;62504;46.070;14.492;2024-01-30T08:21:37;38.10;;;17.20;;
64688;SDS011;62504;46.070;14.492;2024-01-30T08:24:03;35.67;;;17.30;;
64688;SDS011;62504;46.070;14.492;2024-01-30T08:26:29;41.03;;;18.90;;
64688;SDS011;62504;46.070;14.492;2024-01-30T08:28:56;42.90;;;18.73;;
64688;SDS011;62504;46.070;14.492;2024-01-30T08:31:21;41.57;;;18.50;;
64688;SDS011;62504;46.070;14.492;2024-01-30T08:33:47;42.50;;;19.50;;
64688;SDS011;62504;46.070;14.492;2024-01-30T08:36:13;38.57;;;18.37;;
64688;SDS011;62504;46.070;14.492;2024-01-30T08:38:39;44.23;;;19.53;;
64688;SDS011;62504;46.070;14.492;2024-01-30T08:41:04;38.60;;;19.40;;
64688;SDS011;62504;46.070;14.492;2024-01-30T08:43:30;39.57;;;19.83;;
64688;SDS011;62504;46.070;14.492;2024-01-30T08:45:58;39.33;;;20.00;;
64688;SDS011;62504;46.070;14.492;2024-01-30T08:48:24;38.27;;;20.00;;
64688;SDS011;62504;46.070;14.492;2024-01-30T08:50:50;41.30;;;20.40;;
64688;SDS011;62504;46.070;14.492;2024-01-30T08:53:16;38.50;;;20.17;;
64688;SDS011;62504;46.070;14.492;2024-01-30T08:55:42;42.80;;;20.50;;
64688;SDS011;62504;46.070;14.492;2024-01-30T08:58:07;40.73;;;21.60;;
64688;SDS011;62504;46.070;14.492;2024-01-30T09:00:33;45.03;;;21.73;;
64688;SDS011;62504;46.070;14.492;2024-01-30T09:02:59;42.07;;;22.47;;
64688;SDS011;62504;46.070;14.492;2024-01-30T09:05:24;45.90;;;24.23;;
64688;SDS011;62504;46.070;14.492;2024-01-30T09:07:50;46.93;;;24.57;;
64688;SDS011;62504;46.070;14.492;2024-01-30T09:10:15;51.60;;;25.90;;
64688;SDS011;62504;46.070;14.492;2024-01-30T09:12:41;45.63;;;25.03;;
64688;SDS011;62504;46.070;14.492;2024-01-30T09:15:07;46.20;;;24.97;;
64688;SDS011;62504;46.070;14.492;2024-01-30T09:17:33;43.57;;;25.20;;
64688;SDS011;62504;46.070;14.492;2024-01-30T09:19:59;43.37;;;24.50;;
64688;SDS011;62504;46.070;14.492;2024-01-30T09:22:24;43.20;;;24.03;;
64688;SDS011;62504;46.070;14.492;2024-01-30T09:24:50;48.80;;;24.33;;
64688;SDS011;62504;46.070;14.492;2024-01-30T09:27:16;44.83;;;24.87;;
64688;SDS011;62504;46.070;14.492;2024-01-30T09:29:41;44.43;;;24.70;;
64688;SDS011;62504;46.070;14.492;2024-01-30T09:32:07;47.43;;;24.70;;
64688;SDS011;62504;46.070;14.492;2024-01-30T09:34:34;49.63;;;25.83;;
64688;SDS011;62504;46.070;14.492;2024-01-30T09:36:59;51.30;;;26.00;;
64688;SDS011;62504;46.070;14.492;2024-01-30T09:39:25;47.90;;;25.93;;
64688;SDS011;62504;46.070;14.492;2024-01-30T09:44:25;48.80;;;26.03;;
64688;SDS011;62504;46.070;14.492;2024-01-30T09:46:53;52.47;;;26.73;;
64688;SDS011;62504;46.070;14.492;2024-01-30T09:49:20;51.63;;;26.07;;
64688;SDS011;62504;46.070;14.492;2024-01-30T09:51:47;47.13;;;25.73;;
64688;SDS011;62504;46.070;14.492;2024-01-30T09:54:14;48.43;;;26.87;;
64688;SDS011;62504;46.070;14.492;2024-01-30T09:56:40;50.17;;;25.47;;
64688;SDS011;62504;46.070;14.492;2024-01-30T09:59:06;55.00;;;26.37;;
64688;SDS011;62504;46.070;14.492;2024-01-30T10:01:32;49.03;;;25.47;;
64688;SDS011;62504;46.070;14.492;2024-01-30T10:04:00;49.60;;;24.50;;
64688;SDS011;62504;46.070;14.492;2024-01-30T10:06:26;54.57;;;26.57;;
64688;SDS011;62504;46.070;14.492;2024-01-30T10:08:52;54.03;;;26.07;;
64688;SDS011;62504;46.070;14.492;2024-01-30T10:11:18;53.40;;;25.03;;
64688;SDS011;62504;46.070;14.492;2024-01-30T10:13:44;80.70;;;39.70;;
64688;SDS011;62504;46.070;14.492;2024-01-30T10:16:09;50.87;;;26.80;;
64688;SDS011;62504;46.070;14.492;2024-01-30T10:18:35;67.53;;;32.37;;
64688;SDS011;62504;46.070;14.492;2024-01-30T10:21:00;56.93;;;27.77;;
64688;SDS011;62504;46.070;14.492;2024-01-30T10:23:26;51.20;;;27.70;;
64688;SDS011;62504;46.070;14.492;2024-01-30T10:25:52;55.93;;;27.53;;
64688;SDS011;62504;46.070;14.492;2024-01-30T10:28:17;57.63;;;27.77;;
64688;SDS011;62504;46.070;14.492;2024-01-30T10:30:43;54.60;;;27.70;;
64688;SDS011;62504;46.070;14.492;2024-01-30T10:33:09;56.27;;;27.93;;
64688;SDS011;62504;46.070;14.492;2024-01-30T10:35:34;59.80;;;30.03;;
64688;SDS011;62504;46.070;14.492;2024-01-30T10:38:00;56.50;;;28.27;;
64688;SDS011;62504;46.070;14.492;2024-01-30T10:40:27;54.20;;;27.73;;
64688;SDS011;62504;46.070;14.492;2024-01-30T10:42:54;56.77;;;26.00;;
64688;SDS011;62504;46.070;14.492;2024-01-30T10:45:21;57.33;;;26.70;;
64688;SDS011;62504;46.070;14.492;2024-01-30T10:47:52;59.67;;;30.80;;
64688;SDS011;62504;46.070;14.492;2024-01-30T10:50:21;63.67;;;29.63;;
64688;SDS011;62504;46.070;14.492;2024-01-30T10:52:52;55.43;;;27.43;;
64688;SDS011;62504;46.070;14.492;2024-01-30T10:55:18;57.80;;;28.70;;
64688;SDS011;62504;46.070;14.492;2024-01-30T10:57:46;59.17;;;28.57;;
64688;SDS011;62504;46.070;14.492;2024-01-30T11:00:13;56.47;;;27.30;;
64688;SDS011;62504;46.070;14.492;2024-01-30T11:02:44;65.93;;;30.47;;
64688;SDS011;62504;46.070;14.492;2024-01-30T11:05:11;55.63;;;26.87;;
64688;SDS011;62504;46.070;14.492;2024-01-30T11:07:38;54.20;;;27.33;;
64688;SDS011;62504;46.070;14.492;2024-01-30T11:10:05;59.40;;;27.90;;
64688;SDS011;62504;46.070;14.492;2024-01-30T11:12:37;54.93;;;26.63;;
64688;SDS011;62504;46.070;14.492;2024-01-30T11:15:09;56.00;;;26.53;;
64688;SDS011;62504;46.070;14.492;2024-01-30T11:17:43;57.70;;;28.10;;
64688;SDS011;62504;46.070;14.492;2024-01-30T11:20:22;52.93;;;26.87;;
64688;SDS011;62504;46.070;14.492;2024-01-30T11:22:52;53.70;;;26.83;;
64688;SDS011;62504;46.070;14.492;2024-01-30T11:25:20;56.10;;;27.70;;
64688;SDS011;62504;46.070;14.492;2024-01-30T11:27:46;53.90;;;27.57;;
64688;SDS011;62504;46.070;14.492;2024-01-30T11:33:10;49.83;;;24.83;;
64688;SDS011;62504;46.070;14.492;2024-01-30T11:35:42;52.30;;;24.57;;
64688;SDS011;62504;46.070;14.492;2024-01-30T11:38:16;50.40;;;25.73;;
64688;SDS011;62504;46.070;14.492;2024-01-30T11:40:41;51.77;;;24.10;;
64688;SDS011;62504;46.070;14.492;2024-01-30T11:43:09;45.97;;;24.00;;
64688;SDS011;62504;46.070;14.492;2024-01-30T11:45:35;46.33;;;22.77;;
64688;SDS011;62504;46.070;14.492;2024-01-30T11:48:01;47.03;;;24.50;;
64688;SDS011;62504;46.070;14.492;2024-01-30T11:50:31;48.20;;;24.77;;
64688;SDS011;62504;46.070;14.492;2024-01-30T11:52:59;44.80;;;23.07;;
64688;SDS011;62504;46.070;14.492;2024-01-30T11:55:25;45.10;;;22.87;;
64688;SDS011;62504;46.070;14.492;2024-01-30T11:57:51;46.07;;;23.47;;
64688;SDS011;62504;46.070;14.492;2024-01-30T12:00:20;48.67;;;22.93;;
64688;SDS011;62504;46.070;14.492;2024-01-30T12:02:52;46.43;;;23.80;;
64688;SDS011;62504;46.070;14.492;2024-01-30T12:05:22;46.00;;;23.33;;
64688;SDS011;62504;46.070;14.492;2024-01-30T12:07:48;50.50;;;23.27;;
64688;SDS011;62504;46.070;14.492;2024-01-30T12:10:14;46.97;;;22.90;;
64688;SDS011;62504;46.070;14.492;2024-01-30T12:12:41;48.97;;;23.03;;
64688;SDS011;62504;46.070;14.492;2024-01-30T12:15:09;40.87;;;22.10;;
64688;SDS011;62504;46.070;14.492;2024-01-30T12:17:35;47.27;;;22.57;;
64688;SDS011;62504;46.070;14.492;2024-01-30T12:22:54;42.90;;;21.50;;
64688;SDS011;62504;46.070;14.492;2024-01-30T12:25:20;46.30;;;22.97;;
64688;SDS011;62504;46.070;14.492;2024-01-30T12:27:46;50.47;;;25.27;;
64688;SDS011;62504;46.070;14.492;2024-01-30T12:30:17;41.83;;;21.73;;
64688;SDS011;62504;46.070;14.492;2024-01-30T12:32:45;50.40;;;24.70;;
64688;SDS011;62504;46.070;14.492;2024-01-30T12:35:13;48.83;;;23.17;;
64688;SDS011;62504;46.070;14.492;2024-01-30T12:37:40;46.20;;;20.93;;
64688;SDS011;62504;46.070;14.492;2024-01-30T12:40:07;40.10;;;19.87;;
64688;SDS011;62504;46.070;14.492;2024-01-30T12:42:34;41.80;;;20.07;;
64688;SDS011;62504;46.070;14.492;2024-01-30T12:45:02;43.87;;;18.67;;
64688;SDS011;62504;46.070;14.492;2024-01-30T12:47:28;40.27;;;19.77;;
64688;SDS011;62504;46.070;14.492;2024-01-30T12:49:54;33.80;;;15.93;;
64688;SDS011;62504;46.070;14.492;2024-01-30T12:52:20;30.67;;;16.37;;
64688;SDS011;62504;46.070;14.492;2024-01-30T12:54:47;36.87;;;15.27;;
64688;SDS011;62504;46.070;14.492;2024-01-30T12:57:13;33.83;;;15.43;;
64688;SDS011;62504;46.070;14.492;2024-01-30T12:59:39;42.70;;;17.20;;
64688;SDS011;62504;46.070;14.492;2024-01-30T13:02:04;32.97;;;15.53;;
64688;SDS011;62504;46.070;14.492;2024-01-30T13:04:31;37.53;;;17.00;;
64688;SDS011;62504;46.070;14.492;2024-01-30T13:06:57;40.97;;;17.27;;
64688;SDS011;62504;46.070;14.492;2024-01-30T13:09:23;34.90;;;17.37;;
64688;SDS011;62504;46.070;14.492;2024-01-30T13:11:49;42.00;;;17.67;;
64688;SDS011;62504;46.070;14.492;2024-01-30T13:14:16;38.97;;;18.83;;
64688;SDS011;62504;46.070;14.492;2024-01-30T13:16:42;36.03;;;16.07;;
64688;SDS011;62504;46.070;14.492;2024-01-30T13:19:08;34.57;;;16.57;;
64688;SDS011;62504;46.070;14.492;2024-01-30T13:21:34;34.90;;;17.07;;
64688;SDS011;62504;46.070;14.492;2024-01-30T13:23:59;41.93;;;17.03;;
64688;SDS011;62504;46.070;14.492;2024-01-30T13:26:25;34.30;;;16.23;;
64688;SDS011;62504;46.070;14.492;2024-01-30T13:28:51;36.23;;;16.10;;
64688;SDS011;62504;46.070;14.492;2024-01-30T13:31:17;41.33;;;16.93;;
64688;SDS011;62504;46.070;14.492;2024-01-30T13:33:43;38.53;;;16.73;;
64688;SDS011;62504;46.070;14.492;2024-01-30T13:36:10;31.80;;;15.17;;
64688;SDS011;62504;46.070;14.492;2024-01-30T13:38:36;33.43;;;15.07;;
64688;SDS011;62504;46.070;14.492;2024-01-30T13:41:04;33.87;;;15.27;;
64688;SDS011;62504;46.070;14.492;2024-01-30T13:43:29;33.17;;;15.67;;
64688;SDS011;62504;46.070;14.492;2024-01-30T13:45:55;33.80;;;16.17;;
64688;SDS011;62504;46.070;14.492;2024-01-30T13:48:20;34.03;;;16.77;;
64688;SDS011;62504;46.070;14.492;2024-01-30T13:50:46;36.90;;;16.13;;
64688;SDS011;62504;46.070;14.492;2024-01-30T13:53:12;31.97;;;16.40;;
64688;SDS011;62504;46.070;14.492;2024-01-30T13:55:38;36.50;;;16.37;;
64688;SDS011;62504;46.070;14.492;2024-01-30T13:58:05;38.53;;;16.60;;
64688;SDS011;62504;46.070;14.492;2024-01-30T14:00:31;33.43;;;14.97;;
64688;SDS011;62504;46.070;14.492;2024-01-30T14:02:57;37.20;;;15.97;;
64688;SDS011;62504;46.070;14.492;2024-01-30T14:05:24;40.90;;;15.77;;
64688;SDS011;62504;46.070;14.492;2024-01-30T14:07:50;35.77;;;16.50;;
64688;SDS011;62504;46.070;14.492;2024-01-30T14:10:19;31.23;;;16.03;;
64688;SDS011;62504;46.070;14.492;2024-01-30T14:12:45;35.17;;;16.47;;
64688;SDS011;62504;46.070;14.492;2024-01-30T14:15:13;35.17;;;15.83;;